Time;durP1;ratioP1;P1;durP2;ratioP2;P2;SDS_P1;SDS_P2;PMS_P1;PMS_P2;Temp;Humidity;BMP_temperature;BMP_pressure;BME280_temperature;BME280_humidity;BME280_pressure;Samples;Min_cycle;Max_cycle;Signal;HPM_P1;HPM_P2
2023/11/19 00:02:38;;;;;;;19.93;8.80;;;;;;;;;;6210934;22;20167;-92
2023/11/19 00:05:45;;;;;;;26.53;12.60;;;;;;;;;;6209452;23;20167;-92
2023/11/19 00:08:50;;;;;;;19.27;9.40;;;;;;;;;;6229419;23;20255;-91
2023/11/19 00:11:55;;;;;;;13.87;7.23;;;;;;;;;;6210573;23;20224;-91
2023/11/19 00:15:00;;;;;;;18.93;8.83;;;;;;;;;;6209679;23;20163;-89
2023/11/19 00:18:07;;;;;;;21.87;9.80;;;;;;;;;;6211550;23;20167;-92
2023/11/19 00:21:13;;;;;;;16.10;7.43;;;;;;;;;;6212269;23;20171;-89
2023/11/19 00:24:18;;;;;;;17.50;7.70;;;;;;;;;;6210243;23;20223;-91
2023/11/19 00:27:25;;;;;;;16.00;8.00;;;;;;;;;;6209592;23;20190;-92
2023/11/19 00:30:31;;;;;;;15.10;7.80;;;;;;;;;;6208692;23;20234;-91
2023/11/19 00:33:37;;;;;;;15.30;8.40;;;;;;;;;;6209759;23;20215;-93
2023/11/19 00:36:44;;;;;;;14.13;7.53;;;;;;;;;;6209617;23;20619;-90
2023/11/19 00:39:49;;;;;;;31.77;13.70;;;;;;;;;;6209589;23;20512;-91
2023/11/19 00:42:55;;;;;;;15.37;7.30;;;;;;;;;;6210166;23;20247;-91
2023/11/19 00:46:00;;;;;;;12.63;6.10;;;;;;;;;;6208791;23;20171;-90
2023/11/19 00:49:05;;;;;;;11.13;6.13;;;;;;;;;;6209609;23;20685;-90
2023/11/19 00:52:11;;;;;;;13.73;6.20;;;;;;;;;;6211222;23;20167;-90
2023/11/19 00:55:17;;;;;;;13.77;6.83;;;;;;;;;;6209499;23;20622;-89
2023/11/19 00:58:22;;;;;;;13.97;7.37;;;;;;;;;;6209366;23;20168;-91
2023/11/19 01:01:27;;;;;;;12.67;6.70;;;;;;;;;;6208793;23;20166;-90
2023/11/19 01:04:34;;;;;;;11.90;6.90;;;;;;;;;;6210469;23;20175;-91
2023/11/19 01:07:41;;;;;;;14.80;7.40;;;;;;;;;;6210597;23;20191;-91
2023/11/19 01:10:47;;;;;;;14.70;8.37;;;;;;;;;;6209220;23;20238;-92
2023/11/19 01:13:53;;;;;;;16.20;8.17;;;;;;;;;;6210174;23;20186;-88
2023/11/19 01:16:58;;;;;;;18.33;8.90;;;;;;;;;;6211197;23;20187;-91
2023/11/19 01:20:05;;;;;;;17.90;9.67;;;;;;;;;;6211169;23;20174;-90
2023/11/19 01:23:12;;;;;;;20.17;9.50;;;;;;;;;;6212510;23;20171;-91
2023/11/19 01:26:17;;;;;;;16.17;8.90;;;;;;;;;;6211208;23;20533;-92
2023/11/19 01:29:22;;;;;;;16.77;7.73;;;;;;;;;;6212292;23;20167;-90
2023/11/19 01:32:27;;;;;;;17.77;9.17;;;;;;;;;;6211382;23;20183;-92
2023/11/19 01:35:32;;;;;;;17.20;8.37;;;;;;;;;;6211312;23;20211;-89
2023/11/19 01:38:39;;;;;;;17.60;10.03;;;;;;;;;;6212176;23;20230;-92
2023/11/19 01:41:44;;;;;;;23.20;10.83;;;;;;;;;;6211903;23;20154;-91
2023/11/19 01:44:57;;;;;;;23.10;10.27;;;;;;;;;;6211805;23;20178;-90
2023/11/19 01:48:04;;;;;;;18.77;9.03;;;;;;;;;;6212347;23;20635;-91
2023/11/19 01:51:10;;;;;;;21.80;10.47;;;;;;;;;;6210894;23;20283;-91
2023/11/19 01:54:16;;;;;;;19.03;9.87;;;;;;;;;;6209516;23;20171;-91
2023/11/19 01:57:22;;;;;;;19.60;9.43;;;;;;;;;;6209411;23;20178;-92
2023/11/19 02:00:27;;;;;;;16.13;8.43;;;;;;;;;;6207782;23;20178;-91
2023/11/19 02:03:33;;;;;;;18.77;9.00;;;;;;;;;;6209372;23;20214;-93
2023/11/19 02:06:40;;;;;;;17.33;8.43;;;;;;;;;;6207737;23;20234;-89
2023/11/19 02:09:47;;;;;;;16.13;8.30;;;;;;;;;;6210516;23;20178;-90
2023/11/19 02:12:51;;;;;;;17.83;9.20;;;;;;;;;;6210531;23;20218;-89
2023/11/19 02:15:56;;;;;;;18.10;9.50;;;;;;;;;;6211256;23;20210;-91
2023/11/19 02:19:02;;;;;;;22.07;9.67;;;;;;;;;;6211326;23;20234;-92
2023/11/19 02:22:06;;;;;;;20.27;10.20;;;;;;;;;;6209196;23;20178;-91
2023/11/19 02:25:16;;;;;;;15.33;8.53;;;;;;;;;;6210743;23;20159;-91
2023/11/19 02:28:24;;;;;;;14.67;8.13;;;;;;;;;;6211556;22;20195;-93
2023/11/19 02:31:28;;;;;;;19.27;8.43;;;;;;;;;;6209989;23;20170;-92
2023/11/19 02:34:34;;;;;;;18.03;8.80;;;;;;;;;;6210493;23;20167;-90
2023/11/19 02:37:40;;;;;;;16.10;8.70;;;;;;;;;;6209440;23;20163;-91
2023/11/19 02:40:45;;;;;;;17.40;8.30;;;;;;;;;;6211296;22;20179;-91
2023/11/19 02:43:52;;;;;;;16.60;8.63;;;;;;;;;;6209543;23;20194;-91
2023/11/19 02:46:59;;;;;;;15.53;7.97;;;;;;;;;;6211460;23;20242;-91
2023/11/19 02:50:04;;;;;;;17.20;8.20;;;;;;;;;;6209340;22;20210;-89
2023/11/19 02:53:09;;;;;;;17.70;8.70;;;;;;;;;;6212160;23;20258;-91
2023/11/19 02:56:20;;;;;;;19.20;8.70;;;;;;;;;;6211080;22;20222;-86
2023/11/19 02:59:38;;;;;;;17.53;9.03;;;;;;;;;;6211218;22;20298;-89
2023/11/19 03:02:45;;;;;;;15.57;8.90;;;;;;;;;;6209577;23;20167;-91
2023/11/19 03:05:51;;;;;;;15.83;8.77;;;;;;;;;;6210831;23;20171;-92
2023/11/19 03:08:57;;;;;;;17.60;8.60;;;;;;;;;;6209878;23;20210;-93
2023/11/19 03:12:04;;;;;;;14.80;8.07;;;;;;;;;;6209902;22;20190;-90
2023/11/19 03:15:12;;;;;;;17.17;7.97;;;;;;;;;;6228442;23;20657;-91
2023/11/19 03:18:17;;;;;;;18.27;9.87;;;;;;;;;;6208233;23;20167;-91
2023/11/19 03:21:28;;;;;;;18.10;8.97;;;;;;;;;;6209322;23;20174;-92
2023/11/19 03:24:34;;;;;;;16.03;8.30;;;;;;;;;;6207901;23;20172;-90
2023/11/19 03:27:41;;;;;;;17.27;10.23;;;;;;;;;;6208925;23;20190;-90
2023/11/19 03:30:47;;;;;;;15.23;7.67;;;;;;;;;;6209549;23;20193;-90
2023/11/19 03:33:52;;;;;;;14.50;7.73;;;;;;;;;;6208672;23;20269;-92
2023/11/19 03:36:58;;;;;;;16.93;8.67;;;;;;;;;;6209274;23;20158;-91
2023/11/19 03:40:04;;;;;;;14.83;7.77;;;;;;;;;;6210215;23;20265;-90
2023/11/19 03:43:09;;;;;;;14.00;7.70;;;;;;;;;;6210626;23;20171;-92
2023/11/19 03:46:20;;;;;;;14.93;8.17;;;;;;;;;;6209527;23;20167;-88
2023/11/19 03:49:25;;;;;;;12.93;7.20;;;;;;;;;;6210771;23;20168;-91
2023/11/19 03:52:32;;;;;;;14.07;7.13;;;;;;;;;;6211502;23;20159;-92
2023/11/19 03:55:37;;;;;;;12.70;6.83;;;;;;;;;;6209173;23;20170;-88
2023/11/19 03:58:43;;;;;;;12.10;7.03;;;;;;;;;;6209058;23;20239;-88
2023/11/19 04:01:49;;;;;;;10.90;6.27;;;;;;;;;;6208241;23;20175;-89
2023/11/19 04:04:55;;;;;;;12.47;6.57;;;;;;;;;;6209670;23;20211;-91
2023/11/19 04:08:00;;;;;;;17.03;7.70;;;;;;;;;;6208511;23;20206;-91
2023/11/19 04:11:05;;;;;;;16.03;7.73;;;;;;;;;;6210350;23;20231;-90
2023/11/19 04:14:10;;;;;;;13.17;7.83;;;;;;;;;;6207843;23;20167;-87
2023/11/19 04:17:19;;;;;;;13.30;6.97;;;;;;;;;;6210004;23;20166;-93
2023/11/19 04:20:23;;;;;;;14.37;7.53;;;;;;;;;;6209751;22;20171;-91
2023/11/19 04:23:28;;;;;;;14.80;7.37;;;;;;;;;;6210310;23;20174;-89
2023/11/19 04:26:34;;;;;;;11.90;6.60;;;;;;;;;;6209112;23;20167;-92
2023/11/19 04:29:39;;;;;;;15.93;7.00;;;;;;;;;;6207847;23;20175;-89
2023/11/19 04:32:46;;;;;;;12.97;6.43;;;;;;;;;;6209700;23;20158;-92
2023/11/19 04:35:51;;;;;;;13.10;6.87;;;;;;;;;;6210259;23;20187;-91
2023/11/19 04:38:56;;;;;;;12.60;6.90;;;;;;;;;;6210887;23;20199;-93
2023/11/19 04:42:01;;;;;;;13.70;7.00;;;;;;;;;;6210947;23;20163;-90
2023/11/19 04:45:07;;;;;;;13.73;6.47;;;;;;;;;;6213075;23;20220;-91
2023/11/19 04:48:13;;;;;;;11.67;6.33;;;;;;;;;;6212947;23;20190;-89
2023/11/19 04:51:19;;;;;;;11.53;6.37;;;;;;;;;;6211644;23;20618;-91
2023/11/19 04:54:24;;;;;;;10.93;5.70;;;;;;;;;;6212424;23;20179;-92
2023/11/19 04:57:29;;;;;;;12.40;6.37;;;;;;;;;;6210935;23;20171;-91
2023/11/19 05:00:34;;;;;;;10.73;5.83;;;;;;;;;;6211777;23;20183;-92
2023/11/19 05:03:41;;;;;;;10.23;5.97;;;;;;;;;;6211187;23;20244;-89
2023/11/19 05:06:46;;;;;;;10.90;6.27;;;;;;;;;;6212030;23;20211;-93
2023/11/19 05:09:52;;;;;;;10.97;6.53;;;;;;;;;;6211814;23;20187;-90
2023/11/19 05:12:57;;;;;;;12.40;6.80;;;;;;;;;;6211511;23;20178;-93
2023/11/19 05:16:02;;;;;;;13.43;6.83;;;;;;;;;;6210182;23;20175;-92
2023/11/19 05:19:10;;;;;;;10.97;5.90;;;;;;;;;;6210143;23;20163;-91
2023/11/19 05:22:14;;;;;;;11.53;5.83;;;;;;;;;;6211676;22;20150;-93
2023/11/19 05:25:19;;;;;;;13.07;6.13;;;;;;;;;;6210754;23;20630;-91
2023/11/19 05:28:26;;;;;;;10.33;5.97;;;;;;;;;;6211976;23;20186;-91
2023/11/19 05:31:31;;;;;;;10.73;5.90;;;;;;;;;;6215105;22;20594;-91
2023/11/19 05:34:37;;;;;;;10.50;5.77;;;;;;;;;;6213794;23;20166;-92
2023/11/19 05:37:43;;;;;;;10.40;5.70;;;;;;;;;;6212273;23;20205;-92
2023/11/19 05:40:49;;;;;;;11.50;6.73;;;;;;;;;;6213882;23;20171;-91
2023/11/19 05:43:54;;;;;;;14.60;6.43;;;;;;;;;;6213072;23;20249;-91
2023/11/19 05:46:59;;;;;;;11.27;6.00;;;;;;;;;;6212961;23;20166;-91
2023/11/19 05:50:07;;;;;;;10.93;6.17;;;;;;;;;;6210666;23;20271;-92
2023/11/19 05:53:14;;;;;;;12.20;6.10;;;;;;;;;;6211643;22;20191;-91
2023/11/19 05:56:21;;;;;;;12.50;6.70;;;;;;;;;;6212002;22;20223;-93
2023/11/19 05:59:27;;;;;;;10.60;5.97;;;;;;;;;;6212596;23;20175;-92
2023/11/19 06:02:32;;;;;;;11.47;6.40;;;;;;;;;;6213344;23;20207;-89
2023/11/19 06:05:38;;;;;;;9.70;5.53;;;;;;;;;;6212295;23;20176;-91
2023/11/19 06:08:46;;;;;;;11.27;6.07;;;;;;;;;;6211468;23;20195;-89
2023/11/19 06:11:52;;;;;;;10.23;5.80;;;;;;;;;;6212174;22;20167;-92
2023/11/19 06:14:57;;;;;;;11.13;5.90;;;;;;;;;;6210380;23;20210;-89
2023/11/19 06:18:03;;;;;;;12.07;6.20;;;;;;;;;;6211330;23;20163;-91
2023/11/19 06:21:10;;;;;;;10.53;5.80;;;;;;;;;;6211231;23;20171;-92
2023/11/19 06:24:15;;;;;;;8.80;5.13;;;;;;;;;;6209925;23;20171;-93
2023/11/19 06:27:20;;;;;;;10.80;5.30;;;;;;;;;;6211662;23;20175;-91
2023/11/19 06:30:28;;;;;;;9.27;5.37;;;;;;;;;;6211538;22;20249;-90
2023/11/19 06:33:33;;;;;;;8.30;4.60;;;;;;;;;;6211574;23;20175;-89
2023/11/19 06:36:40;;;;;;;10.67;5.90;;;;;;;;;;6211844;23;20492;-92
2023/11/19 06:39:45;;;;;;;10.57;5.63;;;;;;;;;;6209992;23;20163;-91
2023/11/19 06:42:52;;;;;;;10.73;6.20;;;;;;;;;;6211340;22;20162;-91
2023/11/19 06:45:57;;;;;;;10.93;5.90;;;;;;;;;;6210494;23;20215;-91
2023/11/19 06:49:02;;;;;;;10.40;5.67;;;;;;;;;;6212785;23;20242;-91
2023/11/19 06:52:10;;;;;;;10.57;5.90;;;;;;;;;;6211878;23;20166;-90
2023/11/19 06:55:15;;;;;;;9.73;5.30;;;;;;;;;;6210836;23;20175;-91
2023/11/19 06:58:22;;;;;;;10.83;5.33;;;;;;;;;;6212041;23;20172;-88
2023/11/19 07:01:27;;;;;;;8.60;4.67;;;;;;;;;;6211457;23;20242;-90
2023/11/19 07:04:33;;;;;;;11.87;5.70;;;;;;;;;;6210803;22;20231;-88
2023/11/19 07:07:40;;;;;;;9.50;5.27;;;;;;;;;;6209670;23;20167;-91
2023/11/19 07:10:47;;;;;;;9.97;5.07;;;;;;;;;;6209480;23;20194;-91
2023/11/19 07:13:52;;;;;;;10.47;4.80;;;;;;;;;;6210636;23;20227;-89
2023/11/19 07:17:00;;;;;;;11.13;5.60;;;;;;;;;;6211877;23;20152;-91
2023/11/19 07:20:07;;;;;;;11.70;5.90;;;;;;;;;;6214173;23;20244;-92
2023/11/19 07:23:16;;;;;;;8.77;5.23;;;;;;;;;;6212095;23;20723;-90
2023/11/19 07:26:21;;;;;;;9.53;4.83;;;;;;;;;;6210035;23;20170;-90
2023/11/19 07:29:26;;;;;;;9.60;5.17;;;;;;;;;;6209884;23;20190;-90
2023/11/19 07:32:32;;;;;;;9.37;5.23;;;;;;;;;;6213062;22;20171;-90
2023/11/19 07:35:37;;;;;;;9.57;5.40;;;;;;;;;;6211468;23;20242;-90
2023/11/19 07:38:45;;;;;;;9.57;5.03;;;;;;;;;;6211335;23;20167;-90
2023/11/19 07:41:50;;;;;;;7.03;4.30;;;;;;;;;;6211282;23;20190;-91
2023/11/19 07:44:57;;;;;;;8.33;4.43;;;;;;;;;;6212150;23;20191;-87
2023/11/19 07:48:03;;;;;;;8.47;4.30;;;;;;;;;;6212594;23;20194;-89
2023/11/19 07:51:08;;;;;;;9.77;4.87;;;;;;;;;;6213930;22;20238;-92
2023/11/19 07:54:15;;;;;;;7.83;4.23;;;;;;;;;;6214261;23;20167;-90
2023/11/19 07:57:21;;;;;;;8.80;4.77;;;;;;;;;;6214312;23;20171;-89
2023/11/19 08:00:27;;;;;;;8.37;4.80;;;;;;;;;;6216598;22;20227;-89
2023/11/19 08:03:34;;;;;;;9.97;4.80;;;;;;;;;;6216328;23;20182;-91
2023/11/19 08:06:39;;;;;;;11.13;5.47;;;;;;;;;;6214701;23;20173;-87
2023/11/19 08:09:47;;;;;;;9.03;4.53;;;;;;;;;;6213781;22;20206;-90
2023/11/19 08:12:53;;;;;;;9.50;4.60;;;;;;;;;;6217414;23;20242;-91
2023/11/19 08:15:59;;;;;;;7.43;4.43;;;;;;;;;;6215968;23;20198;-87
2023/11/19 08:19:04;;;;;;;8.13;4.47;;;;;;;;;;6215964;23;20175;-90
2023/11/19 08:22:10;;;;;;;8.37;3.87;;;;;;;;;;6214610;23;20170;-91
2023/11/19 08:25:35;;;;;;;5.97;3.53;;;;;;;;;;6213694;23;20178;-91
2023/11/19 08:28:42;;;;;;;7.13;3.93;;;;;;;;;;6215066;23;20211;-91
2023/11/19 08:35:18;;;;;;;5.37;3.00;;;;;;;;;;6214315;23;20206;-91
2023/11/19 08:38:24;;;;;;;6.10;3.27;;;;;;;;;;6218555;22;20211;-89
2023/11/19 08:41:30;;;;;;;5.77;3.30;;;;;;;;;;6217716;23;20167;-92
2023/11/19 08:44:36;;;;;;;5.33;3.37;;;;;;;;;;6216571;23;20167;-89
2023/11/19 08:47:43;;;;;;;5.23;3.30;;;;;;;;;;6213941;23;20163;-89
2023/11/19 08:50:48;;;;;;;7.37;3.30;;;;;;;;;;6212280;23;20171;-93
2023/11/19 08:53:53;;;;;;;5.83;3.47;;;;;;;;;;6214562;22;20163;-92
2023/11/19 08:56:59;;;;;;;5.47;2.97;;;;;;;;;;6215213;23;20163;-93
2023/11/19 09:00:08;;;;;;;6.10;3.40;;;;;;;;;;6213631;23;20171;-90
2023/11/19 09:03:13;;;;;;;5.33;2.90;;;;;;;;;;6213675;22;20193;-88
2023/11/19 09:06:18;;;;;;;3.73;2.33;;;;;;;;;;6212411;22;20163;-90
2023/11/19 09:09:29;;;;;;;4.50;2.53;;;;;;;;;;6215232;23;20206;-93
2023/11/19 09:12:39;;;;;;;4.03;2.67;;;;;;;;;;6213173;23;20167;-93
2023/11/19 09:15:46;;;;;;;4.03;2.67;;;;;;;;;;6214275;23;20163;-92
2023/11/19 09:18:51;;;;;;;5.57;2.97;;;;;;;;;;6212858;23;20194;-88
2023/11/19 09:21:56;;;;;;;4.80;3.00;;;;;;;;;;6213622;23;20191;-92
2023/11/19 09:25:02;;;;;;;4.80;2.60;;;;;;;;;;6213758;23;20234;-93
2023/11/19 09:28:13;;;;;;;5.60;3.20;;;;;;;;;;6214813;22;20200;-92
2023/11/19 09:31:20;;;;;;;4.60;2.60;;;;;;;;;;6214166;22;20202;-91
2023/11/19 09:34:25;;;;;;;4.10;2.37;;;;;;;;;;6212565;23;20167;-90
2023/11/19 09:37:30;;;;;;;3.50;2.53;;;;;;;;;;6232606;23;20199;-92
2023/11/19 09:40:38;;;;;;;4.13;2.50;;;;;;;;;;6213245;22;20182;-88
2023/11/19 09:43:44;;;;;;;11.40;4.90;;;;;;;;;;6215452;23;20151;-92
2023/11/19 09:46:52;;;;;;;6.33;3.60;;;;;;;;;;6214194;23;20167;-90
2023/11/19 09:49:57;;;;;;;5.00;3.00;;;;;;;;;;6212720;23;20226;-92
2023/11/19 09:53:02;;;;;;;5.03;3.10;;;;;;;;;;6213353;23;20195;-89
2023/11/19 09:56:08;;;;;;;5.07;2.80;;;;;;;;;;6214959;23;20187;-94
2023/11/19 09:59:14;;;;;;;3.43;2.20;;;;;;;;;;6214804;22;20154;-89
2023/11/19 10:05:52;;;;;;;3.87;2.67;;;;;;;;;;6217857;23;20183;-90
2023/11/19 10:08:59;;;;;;;5.47;3.20;;;;;;;;;;6213739;23;20186;-91
2023/11/19 10:12:03;;;;;;;7.37;3.60;;;;;;;;;;6213635;22;20623;-91
2023/11/19 10:15:14;;;;;;;6.47;3.40;;;;;;;;;;6215291;22;20272;-91
2023/11/19 10:18:25;;;;;;;6.50;3.60;;;;;;;;;;6214366;23;20171;-92
2023/11/19 10:21:34;;;;;;;6.00;3.77;;;;;;;;;;6212114;23;20245;-93
2023/11/19 10:24:40;;;;;;;3.40;2.33;;;;;;;;;;6214693;23;20220;-90
2023/11/19 10:27:49;;;;;;;4.37;2.87;;;;;;;;;;6213105;23;20236;-88
2023/11/19 10:30:58;;;;;;;5.40;3.10;;;;;;;;;;6214278;22;20263;-91
2023/11/19 10:34:05;;;;;;;7.10;3.07;;;;;;;;;;6214237;23;20159;-91
2023/11/19 10:37:10;;;;;;;4.47;2.80;;;;;;;;;;6214359;23;20167;-92
2023/11/19 10:40:26;;;;;;;4.70;3.00;;;;;;;;;;6214792;23;20178;-91
2023/11/19 10:43:31;;;;;;;7.50;3.50;;;;;;;;;;6214810;23;20174;-90
2023/11/19 10:46:40;;;;;;;5.40;3.20;;;;;;;;;;6214439;23;20291;-88
2023/11/19 10:49:48;;;;;;;5.27;3.20;;;;;;;;;;6198574;22;20194;-93
2023/11/19 10:52:58;;;;;;;5.03;2.70;;;;;;;;;;6214837;23;20191;-89
2023/11/19 10:56:08;;;;;;;6.10;2.90;;;;;;;;;;6214441;23;20498;-91
2023/11/19 10:59:16;;;;;;;9.53;3.60;;;;;;;;;;6215307;23;20194;-90
2023/11/19 11:02:24;;;;;;;6.77;3.50;;;;;;;;;;6214893;22;20167;-93
2023/11/19 11:05:31;;;;;;;11.80;5.60;;;;;;;;;;6216116;23;20195;-90
2023/11/19 11:08:40;;;;;;;8.37;4.07;;;;;;;;;;6216004;23;20179;-91
2023/11/19 11:11:48;;;;;;;6.10;3.23;;;;;;;;;;6213390;23;20324;-90
2023/11/19 11:14:55;;;;;;;7.70;4.00;;;;;;;;;;6212724;23;20227;-91
2023/11/19 11:18:03;;;;;;;10.07;3.93;;;;;;;;;;6211842;23;20175;-91
2023/11/19 11:21:13;;;;;;;6.97;4.00;;;;;;;;;;6214142;22;20236;-89
2023/11/19 11:24:41;;;;;;;11.03;5.07;;;;;;;;;;6213067;23;20170;-90
2023/11/19 11:27:51;;;;;;;6.50;2.90;;;;;;;;;;6212551;23;20197;-93
2023/11/19 11:31:05;;;;;;;6.67;3.70;;;;;;;;;;6211491;22;20199;-89
2023/11/19 11:34:25;;;;;;;7.10;3.23;;;;;;;;;;6212592;22;20276;-90
2023/11/19 11:37:34;;;;;;;7.70;3.43;;;;;;;;;;6213107;23;20187;-92
2023/11/19 11:40:40;;;;;;;7.33;4.10;;;;;;;;;;6212648;23;20214;-89
2023/11/19 11:43:47;;;;;;;7.60;3.67;;;;;;;;;;6209858;23;20210;-90
2023/11/19 11:46:56;;;;;;;6.77;3.63;;;;;;;;;;6212596;23;20226;-92
2023/11/19 11:50:07;;;;;;;6.63;3.57;;;;;;;;;;6210730;23;20174;-91
2023/11/19 11:53:17;;;;;;;8.93;3.70;;;;;;;;;;6211447;23;20171;-93
2023/11/19 11:56:23;;;;;;;7.70;2.90;;;;;;;;;;6209588;23;20234;-92
2023/11/19 11:59:33;;;;;;;6.50;3.03;;;;;;;;;;6211326;23;20175;-90
2023/11/19 12:02:39;;;;;;;5.15;3.50;;;;;;;;;;6209223;22;20769;-91
2023/11/19 12:05:45;;;;;;;4.40;2.80;;;;;;;;;;6208953;23;20183;-89
2023/11/19 12:08:51;;;;;;;5.53;3.17;;;;;;;;;;6209914;23;20190;-91
2023/11/19 12:12:09;;;;;;;5.13;2.80;;;;;;;;;;6208752;23;20166;-90
2023/11/19 12:15:15;;;;;;;4.87;3.10;;;;;;;;;;6213799;22;20352;-89
2023/11/19 12:18:20;;;;;;;5.93;3.80;;;;;;;;;;6212970;23;20176;-91
2023/11/19 12:21:32;;;;;;;8.30;4.40;;;;;;;;;;6213912;23;20170;-90
2023/11/19 12:24:49;;;;;;;10.57;5.83;;;;;;;;;;6212081;23;20167;-90
2023/11/19 12:27:55;;;;;;;52.80;22.23;;;;;;;;;;6210094;23;20186;-88
2023/11/19 12:31:09;;;;;;;15.87;6.80;;;;;;;;;;6210199;23;20191;-89
2023/11/19 12:34:15;;;;;;;14.33;6.33;;;;;;;;;;6209533;23;20171;-88
2023/11/19 12:37:20;;;;;;;18.30;9.30;;;;;;;;;;6209181;23;20234;-91
2023/11/19 12:40:28;;;;;;;8.53;5.20;;;;;;;;;;6210047;23;20629;-90
2023/11/19 12:43:34;;;;;;;24.00;11.00;;;;;;;;;;6208758;23;20171;-90
2023/11/19 12:46:41;;;;;;;10.37;5.83;;;;;;;;;;6211820;23;20183;-92
2023/11/19 12:49:56;;;;;;;49.97;22.43;;;;;;;;;;6213163;23;20689;-88
2023/11/19 12:53:02;;;;;;;12.77;6.85;;;;;;;;;;6210952;23;20214;-90
2023/11/19 12:56:12;;;;;;;7.67;4.80;;;;;;;;;;6211985;23;20501;-90
2023/11/19 12:59:18;;;;;;;12.93;7.00;;;;;;;;;;6210269;23;20171;-90
2023/11/19 13:02:25;;;;;;;10.00;4.90;;;;;;;;;;6212628;23;20215;-90
2023/11/19 13:05:32;;;;;;;11.68;5.88;;;;;;;;;;6214300;23;20171;-91
2023/11/19 13:08:39;;;;;;;10.13;5.78;;;;;;;;;;6210977;23;20171;-91
2023/11/19 13:11:47;;;;;;;38.60;17.70;;;;;;;;;;6210830;23;20246;-92
2023/11/19 13:14:53;;;;;;;9.30;5.97;;;;;;;;;;6212434;23;20199;-90
2023/11/19 13:17:58;;;;;;;10.35;5.82;;;;;;;;;;6211471;23;20183;-88
2023/11/19 13:21:04;;;;;;;11.07;5.38;;;;;;;;;;6214041;23;20200;-89
2023/11/19 13:24:10;;;;;;;10.57;5.60;;;;;;;;;;6212347;23;20674;-90
2023/11/19 13:27:17;;;;;;;11.40;5.97;;;;;;;;;;6213942;23;20171;-90
2023/11/19 13:30:23;;;;;;;9.57;5.32;;;;;;;;;;6212776;23;20871;-88
2023/11/19 13:33:30;;;;;;;21.33;10.40;;;;;;;;;;6212999;23;20240;-89
2023/11/19 13:36:35;;;;;;;16.70;7.82;;;;;;;;;;6212122;23;20230;-88
2023/11/19 13:39:43;;;;;;;24.80;10.05;;;;;;;;;;6213201;23;20167;-92
2023/11/19 13:42:50;;;;;;;9.45;4.60;;;;;;;;;;6212177;23;20175;-91
2023/11/19 13:45:55;;;;;;;7.10;4.25;;;;;;;;;;6211717;22;20229;-89
2023/11/19 13:49:01;;;;;;;6.50;4.22;;;;;;;;;;6213677;22;20236;-90
2023/11/19 13:52:06;;;;;;;12.73;6.63;;;;;;;;;;6212292;23;20501;-92
2023/11/19 13:55:12;;;;;;;8.17;4.90;;;;;;;;;;6213594;23;20163;-91
2023/11/19 13:58:19;;;;;;;8.05;4.40;;;;;;;;;;6212292;23;20166;-91
2023/11/19 14:01:24;;;;;;;8.35;4.90;;;;;;;;;;6212940;23;20178;-91
2023/11/19 14:04:29;;;;;;;8.80;4.93;;;;;;;;;;6215038;22;20226;-91
2023/11/19 14:07:35;;;;;;;7.40;4.57;;;;;;;;;;6213052;23;20275;-91
2023/11/19 14:10:40;;;;;;;13.70;7.53;;;;;;;;;;6213335;23;20194;-88
2023/11/19 14:13:49;;;;;;;10.20;5.88;;;;;;;;;;6213301;23;20275;-90
2023/11/19 14:16:54;;;;;;;14.68;7.18;;;;;;;;;;6214229;23;20183;-87
2023/11/19 14:19:59;;;;;;;11.45;5.45;;;;;;;;;;6213553;23;20167;-90
2023/11/19 14:23:05;;;;;;;18.00;9.13;;;;;;;;;;6214738;23;20167;-90
2023/11/19 14:26:10;;;;;;;8.55;5.47;;;;;;;;;;6213458;22;20183;-89
2023/11/19 14:29:17;;;;;;;9.90;5.55;;;;;;;;;;6214514;22;20236;-88
2023/11/19 14:32:22;;;;;;;11.98;7.35;;;;;;;;;;6214076;22;20218;-87
2023/11/19 14:35:27;;;;;;;17.60;9.77;;;;;;;;;;6212673;23;20166;-89
2023/11/19 14:38:33;;;;;;;8.00;5.43;;;;;;;;;;6214653;22;20171;-92
2023/11/19 14:41:39;;;;;;;8.35;4.32;;;;;;;;;;6213128;22;20171;-89
2023/11/19 14:44:52;;;;;;;9.25;5.57;;;;;;;;;;6216296;22;20188;-92
2023/11/19 14:47:57;;;;;;;11.43;5.75;;;;;;;;;;6217121;23;20240;-90
2023/11/19 14:51:03;;;;;;;10.90;5.75;;;;;;;;;;6210026;23;20753;-90
2023/11/19 14:54:09;;;;;;;7.20;4.43;;;;;;;;;;6214312;22;20222;-89
2023/11/19 14:57:14;;;;;;;7.45;4.25;;;;;;;;;;6212419;22;20648;-85
2023/11/19 15:00:22;;;;;;;7.80;4.88;;;;;;;;;;6212631;23;20171;-91
2023/11/19 15:03:27;;;;;;;10.13;5.15;;;;;;;;;;6212083;23;20171;-89
2023/11/19 15:06:34;;;;;;;11.70;6.70;;;;;;;;;;6213806;23;20171;-91
2023/11/19 15:09:41;;;;;;;11.13;6.28;;;;;;;;;;6215758;22;20182;-91
2023/11/19 15:12:47;;;;;;;10.40;5.78;;;;;;;;;;6213932;22;20166;-89
2023/11/19 15:15:55;;;;;;;9.70;5.85;;;;;;;;;;6215137;23;20214;-91
2023/11/19 15:19:03;;;;;;;11.90;6.35;;;;;;;;;;6212330;23;20175;-91
2023/11/19 15:22:11;;;;;;;14.48;8.25;;;;;;;;;;6212424;23;20176;-89
2023/11/19 15:25:17;;;;;;;16.35;8.55;;;;;;;;;;6215265;23;20155;-92
2023/11/19 15:28:22;;;;;;;18.90;12.00;;;;;;;;;;6213478;22;20263;-95
2023/11/19 15:31:28;;;;;;;11.95;7.13;;;;;;;;;;6212976;23;20282;-91
2023/11/19 15:34:37;;;;;;;26.67;16.10;;;;;;;;;;6212917;23;20658;-89
2023/11/19 15:37:43;;;;;;;14.80;7.80;;;;;;;;;;6213718;23;20183;-88
2023/11/19 15:40:49;;;;;;;13.40;7.45;;;;;;;;;;6196925;23;20151;-91
2023/11/19 15:43:55;;;;;;;47.17;20.38;;;;;;;;;;6214467;22;20178;-90
2023/11/19 15:47:02;;;;;;;44.78;19.75;;;;;;;;;;6212321;23;20200;-92
2023/11/19 15:50:10;;;;;;;34.53;16.90;;;;;;;;;;6214055;22;20151;-90
2023/11/19 15:53:17;;;;;;;21.70;10.38;;;;;;;;;;6213658;23;20179;-89
2023/11/19 15:56:23;;;;;;;24.67;11.63;;;;;;;;;;6213425;23;20280;-91
2023/11/19 15:59:29;;;;;;;22.65;11.20;;;;;;;;;;6216183;22;20179;-93
2023/11/19 16:02:36;;;;;;;25.35;12.77;;;;;;;;;;6214251;23;20162;-89
2023/11/19 16:05:42;;;;;;;20.73;10.05;;;;;;;;;;6214896;22;20171;-91
2023/11/19 16:08:48;;;;;;;19.13;9.35;;;;;;;;;;6214371;23;20171;-88
2023/11/19 16:11:54;;;;;;;20.08;8.63;;;;;;;;;;6214611;23;20685;-90
2023/11/19 16:15:00;;;;;;;19.02;9.10;;;;;;;;;;6217414;22;20171;-91
2023/11/19 16:18:09;;;;;;;18.65;9.07;;;;;;;;;;6213548;23;20216;-87
2023/11/19 16:21:14;;;;;;;21.23;10.80;;;;;;;;;;6215437;22;20159;-92
2023/11/19 16:24:20;;;;;;;15.50;8.38;;;;;;;;;;6217720;23;20155;-90
2023/11/19 16:27:28;;;;;;;17.98;10.02;;;;;;;;;;6217763;23;20175;-87
2023/11/19 16:30:33;;;;;;;26.25;8.93;;;;;;;;;;6216150;23;20187;-89
2023/11/19 16:33:40;;;;;;;41.10;20.93;;;;;;;;;;6233449;22;20197;-88
2023/11/19 16:36:46;;;;;;;31.25;14.00;;;;;;;;;;6216964;23;20168;-91
2023/11/19 16:39:51;;;;;;;32.35;17.40;;;;;;;;;;6215855;23;20283;-89
2023/11/19 16:42:57;;;;;;;22.77;12.15;;;;;;;;;;6214877;23;20155;-88
2023/11/19 16:46:04;;;;;;;26.42;8.85;;;;;;;;;;6216030;23;20170;-92
2023/11/19 16:49:11;;;;;;;20.40;8.77;;;;;;;;;;6217156;23;20172;-91
2023/11/19 16:52:16;;;;;;;2.13;1.92;;;;;;;;;;6214830;23;20187;-90
2023/11/19 16:55:21;;;;;;;1.90;1.70;;;;;;;;;;6217187;22;20187;-89
2023/11/19 16:58:26;;;;;;;2.08;1.92;;;;;;;;;;6215946;22;20175;-90
2023/11/19 17:01:36;;;;;;;3.53;2.20;;;;;;;;;;6216247;23;20295;-92
2023/11/19 17:04:43;;;;;;;2.47;2.20;;;;;;;;;;6214463;23;20166;-91
2023/11/19 17:07:48;;;;;;;1.73;1.63;;;;;;;;;;6214589;23;20166;-90
2023/11/19 17:10:55;;;;;;;1.55;1.45;;;;;;;;;;6215659;23;20187;-88
2023/11/19 17:14:02;;;;;;;3.67;2.88;;;;;;;;;;6214786;22;20179;-89
2023/11/19 17:17:07;;;;;;;2.25;2.05;;;;;;;;;;6215356;22;20224;-90
2023/11/19 17:20:15;;;;;;;2.20;1.15;;;;;;;;;;6213976;23;20170;-91
2023/11/19 17:23:23;;;;;;;2.70;2.15;;;;;;;;;;6214028;22;20162;-88
2023/11/19 17:26:28;;;;;;;2.05;1.85;;;;;;;;;;6214546;22;20182;-89
2023/11/19 17:29:34;;;;;;;4.15;3.20;;;;;;;;;;6214410;23;20170;-91
2023/11/19 17:32:47;;;;;;;1.88;1.77;;;;;;;;;;6216015;23;20191;-88
2023/11/19 17:35:57;;;;;;;4.53;2.40;;;;;;;;;;6214698;22;20175;-90
2023/11/19 17:39:03;;;;;;;1.38;1.27;;;;;;;;;;6215836;22;20212;-89
2023/11/19 17:42:12;;;;;;;1.70;1.50;;;;;;;;;;6214630;23;20171;-89
2023/11/19 17:45:17;;;;;;;14.02;2.47;;;;;;;;;;6215470;23;20163;-89
2023/11/19 17:48:22;;;;;;;1.98;1.70;;;;;;;;;;6217768;23;20162;-89
2023/11/19 17:51:30;;;;;;;6.22;3.20;;;;;;;;;;6217712;23;20173;-87
2023/11/19 17:54:48;;;;;;;5.85;2.35;;;;;;;;;;6217831;23;20182;-90
2023/11/19 17:57:54;;;;;;;4.93;2.70;;;;;;;;;;6215565;23;20179;-90
2023/11/19 18:01:10;;;;;;;3.65;2.88;;;;;;;;;;6218366;22;20240;-90
2023/11/19 18:04:16;;;;;;;5.25;2.75;;;;;;;;;;6219778;22;20191;-88
2023/11/19 21:15:19;;;;;;;1.10;1.00;;;;;;;;;;6189987;22;20216;-88
2023/11/19 21:18:25;;;;;;;1.70;0.82;;;;;;;;;;6211238;23;20191;-89
2023/11/19 21:21:31;;;;;;;0.98;0.95;;;;;;;;;;6220449;22;20172;-92
2023/11/19 21:24:37;;;;;;;1.48;1.38;;;;;;;;;;6220320;22;20167;-89
2023/11/19 21:27:43;;;;;;;4.68;0.98;;;;;;;;;;6220835;23;20194;-89
2023/11/19 21:30:51;;;;;;;1.75;1.33;;;;;;;;;;6220652;23;20167;-88
2023/11/19 21:33:57;;;;;;;6.10;1.20;;;;;;;;;;6219207;23;20171;-88
2023/11/19 21:37:03;;;;;;;0.77;0.77;;;;;;;;;;6221464;22;20154;-89
2023/11/19 21:40:11;;;;;;;1.83;1.52;;;;;;;;;;6219979;22;20199;-91
2023/11/19 21:43:19;;;;;;;1.55;1.30;;;;;;;;;;6220312;23;20170;-91